createdAt,value
2017-05-23T00:02:02.104Z,67.41
2017-05-23T00:04:32.037Z,68.13
2017-05-23T00:07:01.876Z,67.95
2017-05-23T00:09:31.749Z,67.69
2017-05-23T00:12:01.600Z,67.61
2017-05-23T00:14:31.446Z,67.88
2017-05-23T00:17:01.330Z,68.17
2017-05-23T00:19:31.167Z,67.71
2017-05-23T00:22:01.088Z,67.75
2017-05-23T00:24:30.924Z,67.95
2017-05-23T00:27:00.775Z,68.35
2017-05-23T00:29:30.642Z,68.10
2017-05-23T00:32:00.488Z,67.94
2017-05-23T00:34:30.396Z,68.41
2017-05-23T00:37:00.242Z,68.28
2017-05-23T00:39:30.088Z,68.64
2017-05-23T00:41:59.950Z,68.64
2017-05-23T00:44:29.788Z,68.40
2017-05-23T00:46:59.659Z,68.41
2017-05-23T00:49:29.508Z,68.83
2017-05-23T00:51:59.356Z,68.71
2017-05-23T00:54:29.373Z,69.03
2017-05-23T00:57:01.189Z,69.00
2017-05-23T00:59:31.080Z,69.26
2017-05-23T01:02:00.923Z,69.01
2017-05-23T01:04:30.797Z,69.10
2017-05-23T01:07:00.670Z,69.36
2017-05-23T01:09:30.522Z,69.12
2017-05-23T01:12:00.411Z,69.20
2017-05-23T01:14:30.258Z,69.00
2017-05-23T01:17:00.095Z,69.22
2017-05-23T01:19:30.023Z,69.18
2017-05-23T01:21:59.868Z,69.68
2017-05-23T01:24:29.735Z,69.48
2017-05-23T01:26:59.579Z,69.74
2017-05-23T01:29:29.434Z,69.91
2017-05-23T01:31:59.318Z,70.10
2017-05-23T01:34:29.176Z,70.30
2017-05-23T01:36:58.438Z,70.56
2017-05-23T01:39:28.290Z,70.88
2017-05-23T01:41:57.777Z,70.93
2017-05-23T01:44:27.653Z,70.91
2017-05-23T01:46:57.132Z,71.08
2017-05-23T01:49:27.021Z,71.37
2017-05-23T01:51:56.875Z,71.62
2017-05-23T01:54:26.785Z,71.23
2017-05-23T01:56:57.561Z,71.42
2017-05-23T01:59:27.415Z,71.72
2017-05-23T02:01:57.296Z,71.41
2017-05-23T02:04:27.144Z,71.62
2017-05-23T02:06:57.049Z,71.13
2017-05-23T02:09:26.893Z,70.76
2017-05-23T02:11:56.772Z,70.68
2017-05-23T02:14:26.652Z,70.91
2017-05-23T02:16:56.525Z,71.26
2017-05-23T02:19:26.428Z,71.52
2017-05-23T02:21:56.332Z,71.39
2017-05-23T02:24:26.184Z,71.31
2017-05-23T02:26:56.121Z,71.26
2017-05-23T02:29:25.964Z,71.07
2017-05-23T02:31:55.903Z,71.07
2017-05-23T02:34:25.755Z,71.03
2017-05-23T02:36:55.606Z,71.13
2017-05-23T02:39:25.540Z,71.21
2017-05-23T02:41:55.380Z,71.51
2017-05-23T02:44:25.333Z,71.24
2017-05-23T02:46:55.184Z,71.63
2017-05-23T02:49:25.028Z,71.87
2017-05-23T02:51:54.904Z,71.97
2017-05-23T02:54:25.774Z,71.79
2017-05-23T02:56:55.759Z,71.92
2017-05-23T02:59:25.642Z,71.71
2017-05-23T03:01:55.495Z,71.62
2017-05-23T03:04:25.372Z,71.25
2017-05-23T03:06:55.244Z,71.27
2017-05-23T03:09:25.133Z,71.23
2017-05-23T03:11:54.981Z,71.44
2017-05-23T03:14:24.858Z,72.14
2017-05-23T03:16:54.736Z,72.02
2017-05-23T03:19:24.599Z,71.79
2017-05-23T03:21:54.502Z,71.75
2017-05-23T03:24:24.401Z,71.88
2017-05-23T03:26:54.253Z,72.06
2017-05-23T03:29:24.133Z,71.93
2017-05-23T03:31:53.983Z,72.03
2017-05-23T03:34:23.853Z,72.45
2017-05-23T03:36:53.710Z,72.07
2017-05-23T03:39:23.619Z,72.47
2017-05-23T03:41:53.474Z,72.74
2017-05-23T03:44:23.370Z,72.86
2017-05-23T03:46:53.248Z,73.13
2017-05-23T03:49:23.097Z,73.31
2017-05-23T03:51:53.005Z,72.75
2017-05-23T03:54:22.857Z,73.37
2017-05-23T03:56:53.673Z,73.37
2017-05-23T03:59:23.521Z,72.92
2017-05-23T04:01:53.437Z,72.86
2017-05-23T04:04:23.291Z,73.16
2017-05-23T04:06:53.152Z,73.67
2017-05-23T04:09:23.039Z,73.88
2017-05-23T04:11:52.900Z,73.82
2017-05-23T04:14:22.817Z,73.77
2017-05-23T04:16:52.656Z,73.57
2017-05-23T04:19:22.510Z,73.16
2017-05-23T04:21:52.383Z,73.15
2017-05-23T04:24:22.238Z,73.14
2017-05-23T04:26:52.142Z,73.13
2017-05-23T04:29:21.986Z,73.62
2017-05-23T04:31:51.832Z,73.85
2017-05-23T04:34:21.704Z,73.72
2017-05-23T04:36:51.576Z,73.85
2017-05-23T04:39:21.477Z,73.68
2017-05-23T04:41:51.364Z,74.09
2017-05-23T04:44:21.220Z,75.24
2017-05-23T04:46:51.095Z,75.40
2017-05-23T04:49:20.937Z,75.29
2017-05-23T04:51:50.847Z,75.37
2017-05-23T04:54:20.698Z,75.42
2017-05-23T04:56:50.548Z,75.01
2017-05-23T04:59:20.428Z,75.32
2017-05-23T05:01:50.280Z,75.24
2017-05-23T05:04:20.157Z,75.35
2017-05-23T05:06:50.007Z,74.93
2017-05-23T05:09:19.861Z,74.10
2017-05-23T05:11:49.732Z,73.24
2017-05-23T05:14:19.592Z,72.17
2017-05-23T05:16:49.503Z,71.39
2017-05-23T05:19:19.349Z,70.05
2017-05-23T05:21:49.248Z,70.16
2017-05-23T05:24:19.097Z,69.21
2017-05-23T05:26:48.972Z,69.96
2017-05-23T05:29:18.844Z,69.55
2017-05-23T05:31:48.696Z,69.59
2017-05-23T05:34:18.573Z,69.39
2017-05-23T05:36:48.418Z,69.19
2017-05-23T05:39:18.266Z,69.30
2017-05-23T05:41:48.148Z,69.09
2017-05-23T05:44:17.999Z,69.92
2017-05-23T05:46:47.912Z,69.30
2017-05-23T05:49:17.780Z,69.30
2017-05-23T05:51:47.657Z,69.59
2017-05-23T05:54:17.545Z,69.57
2017-05-23T05:56:47.428Z,69.17
2017-05-23T05:59:17.341Z,69.13
2017-05-23T06:01:47.205Z,69.06
2017-05-23T06:04:17.105Z,68.80
2017-05-23T06:06:46.959Z,68.91
2017-05-23T06:09:16.829Z,68.05
2017-05-23T06:11:46.719Z,67.99
2017-05-23T06:14:22.102Z,68.47
2017-05-23T06:16:52.004Z,68.26
2017-05-23T06:19:21.857Z,68.50
2017-05-23T06:21:51.760Z,68.34
2017-05-23T06:24:21.639Z,67.44
2017-05-23T06:26:51.489Z,67.47
2017-05-23T06:29:22.629Z,67.96
2017-05-23T06:31:52.484Z,67.61
2017-05-23T06:34:22.393Z,67.53
2017-05-23T06:36:52.237Z,67.22
2017-05-23T06:39:22.101Z,65.80
2017-05-23T06:41:51.977Z,65.68
2017-05-23T06:44:21.825Z,64.10
2017-05-23T06:46:51.740Z,63.39
2017-05-23T06:49:21.585Z,62.87
2017-05-23T06:51:52.403Z,62.43
2017-05-23T06:54:22.261Z,62.88
2017-05-23T06:56:52.162Z,62.04
2017-05-23T06:59:22.018Z,62.58
2017-05-23T07:01:51.869Z,62.06
2017-05-23T07:04:21.744Z,61.30
2017-05-23T07:06:51.605Z,60.49
2017-05-23T07:09:21.523Z,60.04
2017-05-23T07:11:51.368Z,59.27
2017-05-23T07:14:21.272Z,59.80
2017-05-23T07:16:51.131Z,60.33
2017-05-23T07:19:21.001Z,60.84
2017-05-23T07:21:50.878Z,60.90
2017-05-23T07:24:20.729Z,59.83
2017-05-23T07:26:50.605Z,59.80
2017-05-23T07:29:20.445Z,59.10
2017-05-23T07:31:50.340Z,59.62
2017-05-23T07:34:20.194Z,58.34
2017-05-23T07:36:50.037Z,59.02
2017-05-23T07:39:19.928Z,56.93
2017-05-23T07:41:49.791Z,56.95
2017-05-23T07:44:19.711Z,56.92
2017-05-23T07:46:49.605Z,56.93
2017-05-23T07:49:19.522Z,56.34
2017-05-23T07:51:49.364Z,55.39
2017-05-23T07:54:19.203Z,55.54
2017-05-23T07:56:49.088Z,54.68
2017-05-23T07:59:18.943Z,53.88
2017-05-23T08:01:48.846Z,53.13
2017-05-23T08:04:18.703Z,54.80
2017-05-23T08:06:48.542Z,55.52
2017-05-23T08:09:18.414Z,55.32
2017-05-23T08:11:48.263Z,54.97
2017-05-23T08:14:18.157Z,54.98
2017-05-23T08:16:48.031Z,53.72
2017-05-23T08:19:17.876Z,51.35
2017-05-23T08:21:47.755Z,51.39
2017-05-23T08:24:17.611Z,50.67
2017-05-23T08:26:47.536Z,48.69
2017-05-23T08:29:17.397Z,47.94
2017-05-23T08:31:47.245Z,48.82
2017-05-23T08:34:17.119Z,47.33
2017-05-23T08:36:46.996Z,47.96
2017-05-23T08:39:16.883Z,47.35
2017-05-23T08:41:46.738Z,48.47
2017-05-23T08:44:16.576Z,48.47
2017-05-23T08:46:46.447Z,48.16
2017-05-23T08:49:16.287Z,48.40
2017-05-23T08:51:46.182Z,48.36
2017-05-23T08:54:16.023Z,48.03
2017-05-23T08:56:45.860Z,47.94
2017-05-23T08:59:15.722Z,48.67
2017-05-23T09:01:45.562Z,49.08
2017-05-23T09:04:15.459Z,49.74
2017-05-23T09:06:45.304Z,48.21
2017-05-23T09:09:15.144Z,48.84
2017-05-23T09:11:45.025Z,49.45
2017-05-23T09:14:14.857Z,49.29
2017-05-23T09:16:44.758Z,48.98
2017-05-23T09:19:14.620Z,48.28
2017-05-23T09:21:44.503Z,47.66
2017-05-23T09:24:14.149Z,48.43
2017-05-23T09:26:49.444Z,47.61
2017-05-23T09:29:19.289Z,47.64
2017-05-23T09:31:49.135Z,48.40
2017-05-23T09:34:19.001Z,48.12
2017-05-23T09:36:48.876Z,47.53
2017-05-23T09:39:18.776Z,47.54
2017-05-23T09:41:48.612Z,48.29
2017-05-23T09:44:18.461Z,48.15
2017-05-23T09:46:48.320Z,47.35
2017-05-23T09:49:18.167Z,48.10
2017-05-23T09:51:48.047Z,48.07
2017-05-23T09:54:17.883Z,47.31
2017-05-23T09:56:47.767Z,46.86
2017-05-23T09:59:17.649Z,47.41
2017-05-23T10:01:47.492Z,48.12
2017-05-23T10:04:17.395Z,47.97
2017-05-23T10:06:47.243Z,48.09
2017-05-23T10:09:17.097Z,48.29
2017-05-23T10:11:46.993Z,48.98
2017-05-23T10:14:16.844Z,48.42
2017-05-23T10:16:46.743Z,47.93
2017-05-23T10:19:16.626Z,48.36
2017-05-23T10:21:46.484Z,49.14
2017-05-23T10:24:16.348Z,49.21
2017-05-23T10:26:46.190Z,47.92
2017-05-23T10:29:16.105Z,47.11
2017-05-23T10:31:45.946Z,45.51
2017-05-23T10:34:15.814Z,44.66
2017-05-23T10:36:45.677Z,43.20
2017-05-23T10:39:15.516Z,43.43
2017-05-23T10:41:45.396Z,43.13
2017-05-23T10:44:15.245Z,43.22
2017-05-23T10:46:45.119Z,43.41
2017-05-23T10:49:14.992Z,44.65
2017-05-23T10:51:44.839Z,43.02
2017-05-23T10:54:14.726Z,42.76
2017-05-23T10:56:44.574Z,43.78
2017-05-23T10:59:14.415Z,43.55
2017-05-23T11:01:44.289Z,41.18
2017-05-23T11:04:14.131Z,41.42
2017-05-23T11:06:44.033Z,41.97
2017-05-23T11:09:13.882Z,42.90
2017-05-23T11:11:43.780Z,42.65
2017-05-23T11:14:13.617Z,42.23
2017-05-23T11:16:43.485Z,42.48
2017-05-23T11:19:13.361Z,42.36
2017-05-23T11:21:43.199Z,42.15
2017-05-23T11:24:13.068Z,42.04
2017-05-23T11:26:42.944Z,41.71
2017-05-23T11:29:12.781Z,41.99
2017-05-23T11:31:42.649Z,42.07
2017-05-23T11:34:12.306Z,41.89
2017-05-23T11:36:42.182Z,42.36
2017-05-23T11:39:12.021Z,42.18
2017-05-23T11:41:41.864Z,42.10
2017-05-23T11:44:11.749Z,42.39
2017-05-23T11:46:41.591Z,43.10
2017-05-23T11:49:11.484Z,42.45
2017-05-23T11:51:41.321Z,42.95
2017-05-23T11:54:11.208Z,42.84
2017-05-23T11:56:41.038Z,42.97
2017-05-23T11:59:10.889Z,43.92
2017-05-23T12:01:40.752Z,44.23
2017-05-23T12:04:10.625Z,43.69
2017-05-23T12:06:40.516Z,42.34
2017-05-23T12:09:10.353Z,41.55
2017-05-23T12:11:40.192Z,41.42
2017-05-23T12:14:10.077Z,41.22
2017-05-23T12:16:39.911Z,41.86
2017-05-23T12:19:09.804Z,42.89
2017-05-23T12:21:39.671Z,42.02
2017-05-23T12:24:09.556Z,41.94
2017-05-23T12:26:39.398Z,41.58
2017-05-23T12:29:09.259Z,42.11
2017-05-23T12:31:39.130Z,42.36
2017-05-23T12:34:08.971Z,42.30
2017-05-23T12:36:38.887Z,42.26
2017-05-23T12:39:08.726Z,42.73
2017-05-23T12:41:38.633Z,42.95
2017-05-23T12:44:08.472Z,42.02
2017-05-23T12:46:38.324Z,41.25
2017-05-23T12:49:08.214Z,41.89
2017-05-23T12:51:38.054Z,41.50
2017-05-23T12:54:07.971Z,42.51
2017-05-23T12:56:37.812Z,41.52
2017-05-23T12:59:07.700Z,41.52
2017-05-23T13:01:37.576Z,42.67
2017-05-23T13:04:07.421Z,43.33
2017-05-23T13:06:38.321Z,43.37
2017-05-23T13:09:08.157Z,43.27
2017-05-23T13:11:37.992Z,43.69
2017-05-23T13:14:07.866Z,43.64
2017-05-23T13:16:37.813Z,44.29
2017-05-23T13:19:07.699Z,44.39
2017-05-23T13:21:38.524Z,45.07
2017-05-23T13:24:08.404Z,45.07
2017-05-23T13:26:38.245Z,45.66
2017-05-23T13:29:08.103Z,45.28
2017-05-23T13:31:38.001Z,45.86
2017-05-23T13:34:07.840Z,46.58
2017-05-23T13:36:37.740Z,47.10
2017-05-23T13:39:07.609Z,46.81
2017-05-23T13:41:37.449Z,46.64
2017-05-23T13:44:07.316Z,46.84
2017-05-23T13:46:37.172Z,46.86
2017-05-23T13:49:07.065Z,45.98
2017-05-23T13:51:36.900Z,46.70
2017-05-23T13:54:06.761Z,47.22
2017-05-23T13:56:36.627Z,47.20
2017-05-23T13:59:06.480Z,46.59
2017-05-23T14:01:36.371Z,46.17
2017-05-23T14:04:06.214Z,45.68
2017-05-23T14:06:36.052Z,45.79
2017-05-23T14:09:05.610Z,46.18
2017-05-23T14:11:35.465Z,46.18
2017-05-23T14:14:05.363Z,45.70
2017-05-23T14:16:35.207Z,45.71
2017-05-23T14:19:06.128Z,46.22
2017-05-23T14:21:35.963Z,46.76
2017-05-23T14:24:05.800Z,46.45
2017-05-23T14:26:35.664Z,46.44
2017-05-23T14:29:05.497Z,46.78
2017-05-23T14:31:35.416Z,47.39
2017-05-23T14:34:05.247Z,47.25
2017-05-23T14:36:35.179Z,47.51
2017-05-23T14:39:04.348Z,47.43
2017-05-23T14:41:34.185Z,46.71
2017-05-23T14:44:04.060Z,46.92
2017-05-23T14:46:33.912Z,47.39
2017-05-23T14:51:10.054Z,50.01
2017-05-23T14:53:39.866Z,51.07
2017-05-23T14:56:09.742Z,51.48
2017-05-23T14:58:39.558Z,51.83
2017-05-23T15:01:09.388Z,51.97
2017-05-23T15:03:39.278Z,51.82
2017-05-23T15:06:09.119Z,52.89
2017-05-23T15:08:39.076Z,53.28
2017-05-23T15:11:08.904Z,53.42
2017-05-23T15:13:38.792Z,54.53
2017-05-23T15:16:08.646Z,54.57
2017-05-23T15:18:38.467Z,54.15
2017-05-23T15:21:08.348Z,53.09
2017-05-23T15:23:38.170Z,52.76
2017-05-23T15:26:08.041Z,53.16
2017-05-23T15:28:37.875Z,52.05
2017-05-23T15:31:07.706Z,51.52
2017-05-23T15:33:37.555Z,51.42
2017-05-23T15:36:07.370Z,51.23
2017-05-23T15:38:37.233Z,52.07
2017-05-23T15:41:07.066Z,51.88
2017-05-23T15:43:36.934Z,51.27
2017-05-23T15:46:06.792Z,50.75
2017-05-23T15:48:36.614Z,50.27
2017-05-23T15:51:06.483Z,50.86
2017-05-23T15:53:36.316Z,51.81
2017-05-23T15:56:06.220Z,51.80
2017-05-23T15:58:36.066Z,53.26
2017-05-23T16:01:05.895Z,51.42
2017-05-23T16:03:35.803Z,51.80
2017-05-23T16:06:05.632Z,51.39
2017-05-23T16:08:35.458Z,52.63
2017-05-23T16:11:05.299Z,53.64
2017-05-23T16:13:35.115Z,53.54
2017-05-23T16:16:04.991Z,54.05
2017-05-23T16:18:34.819Z,53.75
2017-05-23T16:21:04.699Z,53.56
2017-05-23T16:23:34.515Z,54.78
2017-05-23T16:26:04.331Z,54.64
2017-05-23T16:28:34.183Z,54.95
2017-05-23T16:31:04.012Z,55.40
2017-05-23T16:33:33.898Z,56.28
2017-05-23T16:36:03.718Z,56.38
2017-05-23T16:38:33.534Z,56.54
2017-05-23T16:41:03.407Z,56.48
2017-05-23T16:43:33.222Z,56.86
2017-05-23T16:46:03.091Z,56.14
2017-05-23T16:48:32.915Z,56.54
2017-05-23T16:51:02.734Z,55.75
2017-05-23T16:53:32.586Z,55.84
2017-05-23T16:56:02.402Z,56.97
2017-05-23T16:58:32.266Z,57.06
2017-05-23T17:01:02.082Z,56.11
2017-05-23T17:03:31.899Z,55.52
2017-05-23T17:06:01.752Z,54.54
2017-05-23T17:08:31.570Z,54.01
2017-05-23T17:11:01.465Z,53.95
2017-05-23T17:13:31.288Z,54.54
2017-05-23T17:16:01.106Z,54.33
2017-05-23T17:18:30.958Z,54.46
2017-05-23T17:21:00.790Z,54.37
2017-05-23T17:23:30.697Z,54.58
2017-05-23T17:26:00.523Z,54.33
2017-05-23T17:28:30.353Z,54.14
2017-05-23T17:31:00.207Z,54.11
2017-05-23T17:33:30.039Z,53.88
2017-05-23T17:35:59.922Z,53.93
2017-05-23T17:38:29.742Z,54.09
2017-05-23T17:40:59.567Z,54.23
2017-05-23T17:43:29.425Z,54.28
2017-05-23T17:45:59.274Z,54.03
2017-05-23T17:48:29.153Z,54.19
2017-05-23T17:50:58.994Z,54.04
2017-05-23T17:53:28.470Z,54.25
2017-05-23T17:55:58.404Z,54.54
2017-05-23T17:58:28.237Z,54.76
2017-05-23T18:00:58.126Z,55.03
2017-05-23T18:03:27.956Z,54.92
2017-05-23T18:05:57.879Z,55.04
2017-05-23T18:08:27.726Z,55.19
2017-05-23T18:10:57.610Z,55.38
2017-05-23T18:13:27.495Z,55.66
2017-05-23T18:15:57.363Z,56.01
2017-05-23T18:18:27.215Z,56.53
2017-05-23T18:20:57.125Z,57.03
2017-05-23T18:23:26.955Z,57.19
2017-05-23T18:25:56.875Z,57.40
2017-05-23T18:28:26.734Z,57.59
2017-05-23T18:30:56.560Z,57.43
2017-05-23T18:33:26.469Z,57.51
2017-05-23T18:35:57.004Z,56.25
2017-05-23T18:38:26.887Z,55.18
2017-05-23T18:40:56.719Z,54.75
2017-05-23T18:43:26.537Z,56.26
2017-05-23T18:45:56.393Z,57.95
2017-05-23T18:48:26.302Z,58.56
2017-05-23T18:50:56.175Z,58.82
2017-05-23T18:53:26.053Z,59.58
2017-05-23T18:55:55.872Z,59.65
2017-05-23T18:58:25.726Z,59.87
2017-05-23T19:00:55.584Z,60.08
2017-05-23T19:03:25.497Z,60.58
2017-05-23T19:05:55.331Z,60.68
2017-05-23T19:08:25.172Z,61.03
2017-05-23T19:10:55.043Z,61.34
2017-05-23T19:13:24.858Z,60.92
2017-05-23T19:15:54.778Z,60.74
2017-05-23T19:18:24.624Z,60.66
2017-05-23T19:20:54.497Z,60.25
2017-05-23T19:23:24.319Z,60.15
2017-05-23T19:25:54.144Z,59.68
2017-05-23T19:28:23.987Z,59.36
2017-05-23T19:30:53.811Z,59.18
2017-05-23T19:33:23.687Z,58.97
2017-05-23T19:35:53.529Z,58.57
2017-05-23T19:38:23.350Z,58.21
2017-05-23T19:40:53.194Z,57.96
2017-05-23T19:43:23.015Z,57.63
2017-05-23T19:45:52.923Z,57.25
2017-05-23T19:48:22.754Z,57.50
2017-05-23T19:50:52.577Z,58.15
2017-05-23T19:53:22.426Z,58.49
2017-05-23T19:55:52.250Z,58.68
2017-05-23T19:58:22.195Z,58.84
2017-05-23T20:00:52.025Z,59.41
2017-05-23T20:03:21.858Z,59.61
2017-05-23T20:05:51.708Z,59.55
2017-05-23T20:08:21.551Z,59.65
2017-05-23T20:10:51.431Z,59.81
2017-05-23T20:13:21.256Z,60.02
2017-05-23T20:15:51.086Z,60.15
2017-05-23T20:18:20.979Z,60.02
2017-05-23T20:20:50.809Z,60.20
2017-05-23T20:23:20.698Z,60.28
2017-05-23T20:25:50.523Z,60.07
2017-05-23T20:28:20.359Z,60.06
2017-05-23T20:30:50.275Z,59.89
2017-05-23T20:33:20.104Z,59.86
2017-05-23T20:35:49.955Z,60.10
2017-05-23T20:38:19.781Z,60.08
2017-05-23T20:40:49.661Z,60.11
2017-05-23T20:43:19.475Z,60.15
2017-05-23T20:45:49.443Z,60.22
2017-05-23T20:48:19.277Z,60.31
2017-05-23T20:50:49.140Z,60.27
2017-05-23T20:53:18.991Z,60.53
2017-05-23T20:55:48.814Z,60.80
2017-05-23T20:58:18.690Z,61.01
2017-05-23T21:00:48.513Z,60.93
2017-05-23T21:03:18.343Z,61.08
2017-05-23T21:05:48.229Z,61.02
2017-05-23T21:08:18.056Z,61.42
2017-05-23T21:10:48.398Z,61.71
2017-05-23T21:13:18.230Z,61.61
2017-05-23T21:15:48.122Z,61.50
2017-05-23T21:18:18.014Z,61.50
2017-05-23T21:20:47.864Z,61.58
2017-05-23T21:23:17.735Z,61.59
2017-05-23T21:25:47.553Z,61.74
2017-05-23T21:28:17.374Z,61.65
2017-05-23T21:30:47.222Z,61.76
2017-05-23T21:33:17.047Z,62.05
2017-05-23T21:35:46.905Z,61.78
2017-05-23T21:38:16.725Z,61.81
2017-05-23T21:40:46.620Z,61.21
2017-05-23T21:43:16.446Z,60.85
2017-05-23T21:45:46.269Z,60.52
2017-05-23T21:48:16.118Z,60.14
2017-05-23T21:50:45.942Z,60.47
2017-05-23T21:53:15.807Z,60.15
2017-05-23T21:55:45.634Z,58.95
2017-05-23T21:58:15.467Z,58.82
2017-05-23T22:00:45.325Z,58.85
2017-05-23T22:03:15.162Z,59.18
2017-05-23T22:05:45.042Z,58.61
2017-05-23T22:08:14.881Z,58.18
2017-05-23T22:10:44.747Z,57.32
2017-05-23T22:13:14.626Z,56.78
2017-05-23T22:15:44.443Z,56.85
2017-05-23T22:18:14.319Z,56.63
2017-05-23T22:20:44.240Z,56.64
2017-05-23T22:23:14.114Z,56.59
2017-05-23T22:25:43.957Z,56.37
2017-05-23T22:28:13.779Z,56.48
2017-05-23T22:30:43.646Z,56.04
2017-05-23T22:33:13.478Z,56.07
2017-05-23T22:35:43.339Z,56.43
2017-05-23T22:38:13.158Z,56.18
2017-05-23T22:40:43.011Z,55.78
2017-05-23T22:43:12.863Z,55.68
2017-05-23T22:45:42.758Z,55.07
2017-05-23T22:48:12.619Z,54.06
2017-05-23T22:50:42.434Z,54.42
2017-05-23T22:53:12.252Z,54.07
2017-05-23T22:55:42.102Z,53.68
2017-05-23T22:58:11.920Z,53.99
2017-05-23T23:00:41.812Z,53.83
2017-05-23T23:03:11.645Z,53.79
2017-05-23T23:05:41.474Z,53.32
2017-05-23T23:08:11.321Z,53.50
2017-05-23T23:10:41.142Z,53.61
2017-05-23T23:13:11.019Z,53.77
2017-05-23T23:15:40.843Z,53.18
2017-05-23T23:18:10.671Z,53.76
2017-05-23T23:20:40.521Z,53.68
2017-05-23T23:23:10.350Z,53.63
2017-05-23T23:25:40.229Z,53.69
2017-05-23T23:28:10.046Z,53.20
2017-05-23T23:30:39.895Z,51.89
2017-05-23T23:33:09.744Z,51.98
2017-05-23T23:35:39.570Z,51.67
2017-05-23T23:38:09.447Z,51.13
2017-05-23T23:40:39.274Z,51.16
2017-05-23T23:43:09.102Z,51.09
2017-05-23T23:45:38.951Z,51.39
2017-05-23T23:48:08.777Z,51.04
2017-05-23T23:50:38.650Z,50.86
2017-05-23T23:53:08.479Z,50.00
2017-05-23T23:55:38.405Z,50.13
2017-05-23T23:58:08.235Z,49.89
